Portada
METAR-TAF:

METAR-TAF

Aeroports :

Harbin, Xina

latitud: 45-45N, longitud: 126-46E, altitud: 143 m

Observació

L'informe es va fer fa 38 minuts, a les 11:00 UTC
Vent 6 kt del Sud/Sud-Oest
Temperatura -1°C
Humitat 74%
Pressió 1011 hPa
Visibilitat 10 km o més
sense núvols per sota de 1500 mi sense presència de cumulonimbus.

METAR: ZYHB 231100Z 20003MPS CAVOK M01/M05 Q1011 NOSIG

Hora: 19:38 (11:38 UTC)

Pronòstic

L'informe es va fer fa 8 hores i 24 minuts, a les 03:14 UTC
Pronòstic vàlid del 23 a les 06 UTC al 24 a les 06 UTC
Vent 10 kt del Sud/Sud-Oest
Visibilitat: 6000 m
Núvols disperses a una alçada de 3300 ft
Evolucionant progressivament
l' 23 a les 12 UTC al 23 a les 14 UTC
Vent 8 kt del Oest

TAF: ZYHB 230314Z 2306/2406 21005MPS 6000 SCT033 TXM03/2306Z TNM14/2322Z BECMG 2312/2314 28004MPS

Observacions i pronòstics meteorològics de més de 4000 aeroports (METAR i TAF).

Les estacions disponibles són els punts grocs i vermells al mapa.

Posi el ratolí al punt desitjat per veure el nom de l'estació.

Feu clic per veure les observacions i els pronòstics meteorològics.

Per canviar el mapa: feu clic els botons verds amb una creu de color negre per apropar; al botó verd amb un guió per allunyar la imatge; o en les fletxes verdes per a mapes adjacents.


METAR-TAF: